Time,TemperatureF,DewpointF,PressureIn,WindDirection,WindDirectionDegrees,WindSpeedMPH,WindSpeedGustMPH,Humidity,HourlyPrecipIn,Conditions,Clouds,dailyrainin,SolarRadiationWatts/m^2,SoftwareType,DateUTC
2013-01-31 00:05:00,53.8,49.7,29.45,SW,215,10.0,18.0,86,0.00,RA,SCT,0.00,0.0,WeatherDisplay:10.37,2013-01-31 05:05:00,
2013-01-31 00:10:00,53.5,49.4,29.44,SW,217,8.0,16.0,86,0.00,CLR,SCT,0.00,0.0,WeatherDisplay:10.37,2013-01-31 05:10:00,
2013-01-31 00:15:00,53.2,49.4,29.44,SW,217,7.0,16.0,87,0.00,CLR,SCT,0.00,0.0,WeatherDisplay:10.37,2013-01-31 05:15:00,
2013-01-31 00:20:00,52.9,49.1,29.47,SW,214,7.0,12.0,87,0.00,CLR,SCT,0.00,0.0,WeatherDisplay:10.37,2013-01-31 05:20:00,
2013-01-31 00:25:00,52.6,48.9,29.47,SW,214,7.0,15.0,87,0.00,CLR,SCT,0.00,0.0,WeatherDisplay:10.37,2013-01-31 05:25:00,
2013-01-31 00:30:00,52.4,48.6,29.45,SSW,211,6.0,15.0,87,0.00,CLR,SCT,0.00,0.0,WeatherDisplay:10.37,2013-01-31 05:30:00,
2013-01-31 00:40:00,51.9,48.2,29.47,SW,218,7.0,13.0,87,0.00,CLR,SCT,0.00,0.0,WeatherDisplay:10.37,2013-01-31 05:40:00,
2013-01-31 00:45:00,51.8,48.0,29.47,SSW,212,8.0,15.0,87,0.00,CLR,SCT,0.00,0.0,WeatherDisplay:10.37,2013-01-31 05:45:00,
2013-01-31 00:50:00,51.5,47.8,29.48,SSW,205,6.0,14.0,87,0.00,CLR,SCT,0.00,0.0,WeatherDisplay:10.37,2013-01-31 05:50:00,
2013-01-31 01:00:00,51.0,47.0,29.46,SW,217,7.0,20.0,86,0.00,CLR,SCT,0.00,0.0,WeatherDisplay:10.37,2013-01-31 06:00:00,
2013-01-31 01:05:00,50.7,46.7,29.47,SW,218,9.0,20.0,86,0.00,,SCT,0.00,0.0,WeatherDisplay:10.37,2013-01-31 06:05:00,
2013-01-31 01:10:00,50.4,46.1,29.47,SW,217,10.0,22.0,85,0.00,,SCT,0.00,0.0,WeatherDisplay:10.37,2013-01-31 06:10:00,
2013-01-31 01:15:00,50.1,45.5,29.48,SW,226,14.0,22.0,84,0.00,,SCT,0.00,0.0,WeatherDisplay:10.37,2013-01-31 06:15:00,
2013-01-31 01:20:00,50.0,45.3,29.49,SW,229,8.0,15.0,84,0.00,,SCT,0.00,0.0,WeatherDisplay:10.37,2013-01-31 06:20:00,
2013-01-31 01:25:00,49.7,44.8,29.49,SW,227,9.0,20.0,83,0.00,,SCT,0.00,0.0,WeatherDisplay:10.37,2013-01-31 06:25:00,
2013-01-31 01:30:00,49.5,44.6,29.48,SW,225,6.0,17.0,83,0.00,,SCT,0.00,0.0,WeatherDisplay:10.37,2013-01-31 06:30:00,
2013-01-31 01:35:00,49.4,44.4,29.49,SW,227,9.0,18.0,83,0.00,,SCT,0.00,0.0,WeatherDisplay:10.37,2013-01-31 06:35:00,
2013-01-31 01:40:00,49.2,44.3,29.49,SW,219,9.0,20.0,83,0.00,,SCT,0.00,0.0,WeatherDisplay:10.37,2013-01-31 06:40:00,
2013-01-31 01:45:00,49.1,44.2,29.49,SW,218,10.0,20.0,83,0.00,,SCT,0.00,0.0,WeatherDisplay:10.37,2013-01-31 06:45:00,
2013-01-31 01:55:00,48.8,43.9,29.50,SW,227,8.0,15.0,83,0.00,,SCT,0.00,0.0,WeatherDisplay:10.37,2013-01-31 06:55:00,
2013-01-31 02:00:00,48.7,44.1,29.50,SW,233,12.0,22.0,84,0.00,,SCT,0.00,0.0,WeatherDisplay:10.37,2013-01-31 07:00:00,
2013-01-31 02:05:00,48.6,44.0,29.51,WSW,237,8.0,21.0,84,0.00,,SCT,0.00,0.0,WeatherDisplay:10.37,2013-01-31 07:05:00,
2013-01-31 02:10:00,48.4,43.8,29.51,SW,233,9.0,17.0,84,0.01,RA,SCT,0.01,0.0,WeatherDisplay:10.37,2013-01-31 07:10:00,
2013-01-31 02:15:00,48.2,43.9,29.51,WSW,240,8.0,16.0,85,0.00,RA,SCT,0.01,0.0,WeatherDisplay:10.37,2013-01-31 07:15:00,
2013-01-31 02:20:00,48.0,43.7,29.51,WSW,237,8.0,15.0,85,0.00,,SCT,0.01,0.0,WeatherDisplay:10.37,2013-01-31 07:20:00,
2013-01-31 02:25:00,47.9,43.6,29.52,WSW,237,8.0,12.0,85,0.00,,SCT,0.01,0.0,WeatherDisplay:10.37,2013-01-31 07:25:00,
2013-01-31 02:30:00,47.7,43.4,29.52,SW,230,7.0,15.0,85,0.00,,SCT,0.01,0.0,WeatherDisplay:10.37,2013-01-31 07:30:00,
2013-01-31 02:35:00,47.6,43.3,29.52,WSW,237,5.0,14.0,85,0.00,,SCT,0.01,0.0,WeatherDisplay:10.37,2013-01-31 07:35:00,
2013-01-31 02:40:00,47.5,42.9,29.53,WSW,244,10.0,17.0,84,0.00,,SCT,0.01,0.0,WeatherDisplay:10.37,2013-01-31 07:40:00,
2013-01-31 02:45:00,47.5,42.9,29.53,WSW,251,6.0,12.0,84,0.00,,SCT,0.01,0.0,WeatherDisplay:10.37,2013-01-31 07:45:00,
2013-01-31 02:50:00,47.4,42.2,29.53,WSW,255,12.0,17.0,82,0.00,,SCT,0.01,0.0,WeatherDisplay:10.37,2013-01-31 07:50:00,
2013-01-31 02:55:00,47.4,40.9,29.54,WSW,256,9.0,20.0,78,0.00,,SCT,0.01,0.0,WeatherDisplay:10.37,2013-01-31 07:55:00,
2013-01-31 03:00:00,47.4,39.5,29.54,WSW,255,12.0,26.0,74,0.00,,SCT,0.01,0.0,WeatherDisplay:10.37,2013-01-31 08:00:00,
2013-01-31 03:05:00,47.4,38.5,29.55,WSW,255,12.0,18.0,71,0.00,,SCT,0.01,0.0,WeatherDisplay:10.37,2013-01-31 08:05:00,
2013-01-31 03:10:00,47.3,37.6,29.56,WSW,257,13.0,24.0,69,0.00,,SCT,0.01,0.0,WeatherDisplay:10.37,2013-01-31 08:10:00,
2013-01-31 03:15:00,47.2,36.8,29.56,West,260,10.0,18.0,67,0.00,,SCT,0.01,0.0,WeatherDisplay:10.37,2013-01-31 08:15:00,
2013-01-31 03:20:00,47.0,36.6,29.57,WSW,256,8.0,13.0,67,0.00,,SCT,0.01,0.0,WeatherDisplay:10.37,2013-01-31 08:20:00,
2013-01-31 03:25:00,46.8,36.0,29.57,WSW,252,10.0,17.0,66,0.00,,SCT,0.01,0.0,WeatherDisplay:10.37,2013-01-31 08:25:00,
2013-01-31 03:30:00,46.6,35.9,29.57,WSW,251,8.0,22.0,66,0.00,,SCT,0.01,0.0,WeatherDisplay:10.37,2013-01-31 08:30:00,
2013-01-31 03:35:00,46.5,36.1,29.57,WSW,250,8.0,16.0,67,0.00,,SCT,0.01,0.0,WeatherDisplay:10.37,2013-01-31 08:35:00,
2013-01-31 03:40:00,46.4,36.4,29.58,WSW,251,9.0,14.0,68,0.00,,SCT,0.01,0.0,WeatherDisplay:10.37,2013-01-31 08:40:00,
2013-01-31 03:45:00,46.2,35.8,29.58,WSW,250,8.0,15.0,67,0.00,,SCT,0.01,0.0,WeatherDisplay:10.37,2013-01-31 08:45:00,
2013-01-31 03:50:00,46.1,35.4,29.58,WSW,250,9.0,16.0,66,0.00,,SCT,0.01,0.0,WeatherDisplay:10.37,2013-01-31 08:50:00,
2013-01-31 03:55:00,46.0,35.6,29.59,WSW,252,9.0,13.0,67,0.00,,SCT,0.01,0.0,WeatherDisplay:10.37,2013-01-31 08:55:00,
2013-01-31 04:00:00,45.8,35.1,29.59,WSW,251,10.0,16.0,66,0.00,,SCT,0.01,0.0,WeatherDisplay:10.37,2013-01-31 09:00:00,
2013-01-31 04:05:00,45.7,35.0,29.60,WSW,252,14.0,20.0,66,0.00,CLR,SCT,0.01,0.0,WeatherDisplay:10.37,2013-01-31 09:05:00,
2013-01-31 04:10:00,45.6,34.5,29.60,WSW,257,8.0,20.0,65,0.00,CLR,SCT,0.01,0.0,WeatherDisplay:10.37,2013-01-31 09:10:00,
2013-01-31 04:15:00,45.4,34.7,29.61,West,259,8.0,16.0,66,0.00,CLR,SCT,0.01,0.0,WeatherDisplay:10.37,2013-01-31 09:15:00,
2013-01-31 04:20:00,45.2,34.5,29.61,West,264,7.0,13.0,66,0.00,CLR,SCT,0.01,0.0,WeatherDisplay:10.37,2013-01-31 09:20:00,
2013-01-31 04:25:00,45.0,34.7,29.62,West,264,5.0,14.0,67,0.00,CLR,SCT,0.01,0.0,WeatherDisplay:10.37,2013-01-31 09:25:00,
2013-01-31 04:30:00,44.9,34.6,29.62,West,270,9.0,16.0,67,0.00,CLR,SCT,0.01,0.0,WeatherDisplay:10.37,2013-01-31 09:30:00,
2013-01-31 04:35:00,44.6,34.3,29.63,West,269,7.0,16.0,67,0.00,CLR,SCT,0.01,0.0,WeatherDisplay:10.37,2013-01-31 09:35:00,
2013-01-31 04:40:00,44.3,34.0,29.63,West,271,9.0,14.0,67,0.00,CLR,SCT,0.01,0.0,WeatherDisplay:10.37,2013-01-31 09:40:00,
2013-01-31 04:45:00,44.1,33.4,29.64,West,269,14.0,22.0,66,0.00,CLR,SCT,0.01,0.0,WeatherDisplay:10.37,2013-01-31 09:45:00,
2013-01-31 04:50:00,44.0,33.0,29.64,West,267,8.0,20.0,65,0.00,CLR,SCT,0.01,0.0,WeatherDisplay:10.37,2013-01-31 09:50:00,
2013-01-31 04:55:00,43.8,32.5,29.65,West,266,10.0,18.0,64,0.00,CLR,SCT,0.01,0.0,WeatherDisplay:10.37,2013-01-31 09:55:00,
2013-01-31 05:00:00,43.7,31.9,29.66,West,261,8.0,16.0,63,0.00,CLR,SCT,0.01,0.0,WeatherDisplay:10.37,2013-01-31 10:00:00,
2013-01-31 05:05:00,43.4,29.6,29.66,West,261,14.0,27.0,58,0.00,,SCT,0.01,0.0,WeatherDisplay:10.37,2013-01-31 10:05:00,
2013-01-31 05:10:00,43.2,29.4,29.66,West,266,9.0,15.0,58,0.00,,SCT,0.01,0.0,WeatherDisplay:10.37,2013-01-31 10:10:00,
2013-01-31 05:15:00,42.9,29.1,29.67,West,268,8.0,18.0,58,0.00,,SCT,0.01,0.0,WeatherDisplay:10.37,2013-01-31 10:15:00,
2013-01-31 05:20:00,42.6,28.8,29.67,West,267,7.0,18.0,58,0.00,,SCT,0.01,0.0,WeatherDisplay:10.37,2013-01-31 10:20:00,
2013-01-31 05:25:00,42.3,28.2,29.67,WSW,257,13.0,22.0,57,0.00,,SCT,0.01,0.0,WeatherDisplay:10.37,2013-01-31 10:25:00,
2013-01-31 05:30:00,42.2,28.4,29.68,WSW,257,9.0,21.0,58,0.00,,SCT,0.01,0.0,WeatherDisplay:10.37,2013-01-31 10:30:00,
2013-01-31 05:35:00,41.9,28.2,29.68,West,263,7.0,20.0,58,0.00,,SCT,0.01,0.0,WeatherDisplay:10.37,2013-01-31 10:35:00,
2013-01-31 05:40:00,41.7,28.4,29.69,WSW,258,7.0,14.0,59,0.00,,SCT,0.01,0.0,WeatherDisplay:10.37,2013-01-31 10:40:00,
2013-01-31 05:45:00,41.5,28.2,29.70,WSW,253,13.0,22.0,59,0.00,,SCT,0.01,0.0,WeatherDisplay:10.37,2013-01-31 10:45:00,
2013-01-31 05:50:00,41.3,28.0,29.70,WSW,253,10.0,16.0,59,0.00,,SCT,0.01,0.0,WeatherDisplay:10.37,2013-01-31 10:50:00,
2013-01-31 05:55:00,41.2,27.9,29.70,WSW,253,9.0,16.0,59,0.00,,SCT,0.01,0.0,WeatherDisplay:10.37,2013-01-31 10:55:00,
2013-01-31 06:00:00,41.1,28.3,29.71,WSW,258,7.0,15.0,60,0.00,,SCT,0.01,0.0,WeatherDisplay:10.37,2013-01-31 11:00:00,
2013-01-31 06:05:00,40.9,28.5,29.72,West,263,6.0,13.0,61,0.00,CLR,SCT,0.01,0.0,WeatherDisplay:10.37,2013-01-31 11:05:00,
2013-01-31 06:10:00,40.7,28.7,29.72,West,262,6.0,10.0,62,0.00,CLR,SCT,0.01,0.0,WeatherDisplay:10.37,2013-01-31 11:10:00,
2013-01-31 06:15:00,40.4,28.4,29.72,West,262,7.0,16.0,62,0.00,CLR,SCT,0.01,0.0,WeatherDisplay:10.37,2013-01-31 11:15:00,
2013-01-31 06:20:00,40.2,28.2,29.73,West,265,7.0,15.0,62,0.00,CLR,SCT,0.01,0.0,WeatherDisplay:10.37,2013-01-31 11:20:00,
2013-01-31 06:25:00,40.0,28.4,29.73,West,272,5.0,12.0,63,0.00,CLR,SCT,0.01,0.0,WeatherDisplay:10.37,2013-01-31 11:25:00,
2013-01-31 06:30:00,39.7,28.2,29.74,West,268,6.0,10.0,63,0.00,CLR,SCT,0.01,0.0,WeatherDisplay:10.37,2013-01-31 11:30:00,
2013-01-31 06:35:00,39.5,28.3,29.74,West,263,8.0,15.0,64,0.00,CLR,SCT,0.01,0.0,WeatherDisplay:10.37,2013-01-31 11:35:00,
2013-01-31 06:40:00,39.3,28.1,29.75,West,266,5.0,9.0,64,0.00,CLR,SCT,0.01,0.0,WeatherDisplay:10.37,2013-01-31 11:40:00,
2013-01-31 06:45:00,39.1,27.9,29.75,West,272,6.0,10.0,64,0.00,CLR,SCT,0.01,0.0,WeatherDisplay:10.37,2013-01-31 11:45:00,
2013-01-31 06:50:00,38.9,27.8,29.75,West,270,3.0,8.0,64,0.00,CLR,SCT,0.01,0.0,WeatherDisplay:10.37,2013-01-31 11:50:00,
2013-01-31 06:55:00,38.7,28.0,29.76,West,259,2.0,6.0,65,0.00,CLR,SCT,0.01,0.0,WeatherDisplay:10.37,2013-01-31 11:55:00,
2013-01-31 07:00:00,38.5,27.7,29.76,West,270,2.0,10.0,65,0.00,CLR,SCT,0.01,0.0,WeatherDisplay:10.37,2013-01-31 12:00:00,
2013-01-31 07:05:00,38.3,27.9,29.76,West,274,3.0,9.0,66,0.00,,SCT,0.01,0.0,WeatherDisplay:10.37,2013-01-31 12:05:00,
2013-01-31 07:10:00,38.2,27.8,29.77,West,270,3.0,9.0,66,0.00,,SCT,0.01,0.0,WeatherDisplay:10.37,2013-01-31 12:10:00,
2013-01-31 07:15:00,38.0,28.0,29.78,West,271,2.0,9.0,67,0.00,,SCT,0.01,0.0,WeatherDisplay:10.37,2013-01-31 12:15:00,
2013-01-31 07:20:00,37.8,27.9,29.78,West,278,2.0,7.0,67,0.00,,SCT,0.01,0.0,WeatherDisplay:10.37,2013-01-31 12:20:00,
2013-01-31 07:25:00,37.7,27.7,29.79,WNW,282,3.0,8.0,67,0.00,,SCT,0.01,7.0,WeatherDisplay:10.37,2013-01-31 12:25:00,
2013-01-31 07:30:00,37.6,27.6,29.79,WNW,282,2.0,5.0,67,0.00,,SCT,0.01,12.0,WeatherDisplay:10.37,2013-01-31 12:30:00,
2013-01-31 07:35:00,37.4,27.8,29.80,WNW,282,1.0,3.0,68,0.00,,SCT,0.01,12.0,WeatherDisplay:10.37,2013-01-31 12:35:00,
2013-01-31 07:40:00,37.3,28.1,29.81,WNW,282,1.0,4.0,69,0.00,,SCT,0.01,14.0,WeatherDisplay:10.37,2013-01-31 12:40:00,
2013-01-31 07:45:00,37.2,27.9,29.81,WNW,282,0.0,2.0,69,0.00,,SCT,0.01,42.0,WeatherDisplay:10.37,2013-01-31 12:45:00,
2013-01-31 07:50:00,37.1,27.9,29.81,WNW,282,2.0,4.0,69,0.00,,SCT,0.01,60.0,WeatherDisplay:10.37,2013-01-31 12:50:00,
2013-01-31 07:55:00,37.0,28.2,29.81,West,281,1.0,4.0,70,0.00,,SCT,0.01,19.0,WeatherDisplay:10.37,2013-01-31 12:55:00,
2013-01-31 08:00:00,37.0,27.8,29.82,West,268,2.0,7.0,69,0.00,,SCT,0.01,90.0,WeatherDisplay:10.37,2013-01-31 13:00:00,
2013-01-31 08:05:00,37.0,27.8,29.82,WSW,257,2.0,8.0,69,0.00,,SCT,0.01,77.0,WeatherDisplay:10.37,2013-01-31 13:05:00,
2013-01-31 08:10:00,37.1,27.5,29.83,WSW,244,0.0,3.0,68,0.00,,SCT,0.01,134.0,WeatherDisplay:10.37,2013-01-31 13:10:00,
2013-01-31 08:15:00,37.2,27.6,29.83,WSW,244,0.0,1.0,68,0.00,,SCT,0.01,142.0,WeatherDisplay:10.37,2013-01-31 13:15:00,
2013-01-31 08:20:00,37.5,28.2,29.83,WSW,244,0.0,3.0,69,0.00,,SCT,0.01,158.0,WeatherDisplay:10.37,2013-01-31 13:20:00,
2013-01-31 08:25:00,37.8,28.2,29.84,WSW,244,0.0,4.0,68,0.00,,SCT,0.01,172.0,WeatherDisplay:10.37,2013-01-31 13:25:00,
2013-01-31 08:30:00,38.1,28.1,29.84,WSW,252,1.0,5.0,67,0.00,,SCT,0.01,186.0,WeatherDisplay:10.37,2013-01-31 13:30:00,
2013-01-31 08:35:00,38.4,28.0,29.84,WSW,257,2.0,6.0,66,0.00,BKN,SCT,0.01,204.0,WeatherDisplay:10.37,2013-01-31 13:35:00,
2013-01-31 08:45:00,39.0,29.0,29.85,WSW,257,0.0,3.0,67,0.00,CLR,SCT,0.01,272.0,WeatherDisplay:10.37,2013-01-31 13:45:00,
2013-01-31 08:50:00,39.3,28.1,29.85,WSW,256,5.0,8.0,64,0.00,CLR,SCT,0.01,292.0,WeatherDisplay:10.37,2013-01-31 13:50:00,
2013-01-31 08:55:00,39.6,28.4,29.85,West,259,0.0,6.0,64,0.00,CLR,SCT,0.01,288.0,WeatherDisplay:10.37,2013-01-31 13:55:00,
2013-01-31 09:00:00,39.9,27.9,29.86,West,271,6.0,12.0,62,0.00,CLR,SCT,0.01,308.0,WeatherDisplay:10.37,2013-01-31 14:00:00,
2013-01-31 09:05:00,40.0,26.8,29.86,West,272,5.0,10.0,59,0.00,CLR,SCT,0.01,308.0,WeatherDisplay:10.37,2013-01-31 14:05:00,
2013-01-31 09:10:00,40.2,26.6,29.86,West,260,9.0,14.0,58,0.00,CLR,SCT,0.01,320.0,WeatherDisplay:10.37,2013-01-31 14:10:00,
2013-01-31 09:15:00,40.2,25.3,29.86,WSW,253,10.0,17.0,55,0.00,CLR,SCT,0.01,329.0,WeatherDisplay:10.37,2013-01-31 14:15:00,
2013-01-31 09:20:00,40.1,25.7,29.86,West,261,5.0,16.0,56,0.00,CLR,SCT,0.01,346.0,WeatherDisplay:10.37,2013-01-31 14:20:00,
2013-01-31 09:25:00,40.2,25.3,29.86,West,262,10.0,16.0,55,0.00,CLR,SCT,0.01,369.0,WeatherDisplay:10.37,2013-01-31 14:25:00,
2013-01-31 09:30:00,40.3,25.4,29.87,WSW,256,8.0,18.0,55,0.00,CLR,SCT,0.01,380.0,WeatherDisplay:10.37,2013-01-31 14:30:00,
2013-01-31 09:35:00,40.5,25.1,29.87,WSW,253,8.0,17.0,54,0.00,CLR,SCT,0.01,390.0,WeatherDisplay:10.37,2013-01-31 14:35:00,
2013-01-31 09:40:00,40.6,25.2,29.87,WSW,252,9.0,20.0,54,0.00,CLR,SCT,0.01,408.0,WeatherDisplay:10.37,2013-01-31 14:40:00,
2013-01-31 09:50:00,40.7,25.3,29.87,WSW,257,7.0,15.0,54,0.00,CLR,SCT,0.01,436.0,WeatherDisplay:10.37,2013-01-31 14:50:00,
2013-01-31 09:55:00,40.8,25.0,29.87,West,259,9.0,16.0,53,0.00,CLR,SCT,0.01,455.0,WeatherDisplay:10.37,2013-01-31 14:55:00,
2013-01-31 10:00:00,40.9,25.6,29.88,West,260,9.0,13.0,54,0.00,CLR,SCT,0.01,497.0,WeatherDisplay:10.37,2013-01-31 15:00:00,
2013-01-31 10:05:00,41.1,26.6,29.88,West,269,5.0,12.0,56,0.00,CLR,SCT,0.01,504.0,WeatherDisplay:10.37,2013-01-31 15:05:00,
2013-01-31 10:10:00,41.2,25.8,29.88,West,276,9.0,17.0,54,0.00,CLR,SCT,0.01,497.0,WeatherDisplay:10.37,2013-01-31 15:10:00,
2013-01-31 10:15:00,41.1,25.3,29.88,WNW,292,5.0,13.0,53,0.00,CLR,SCT,0.01,503.0,WeatherDisplay:10.37,2013-01-31 15:15:00,
2013-01-31 10:20:00,41.1,25.7,29.89,WNW,288,3.0,12.0,54,0.00,CLR,SCT,0.01,538.0,WeatherDisplay:10.37,2013-01-31 15:20:00,
2013-01-31 10:25:00,41.1,25.3,29.89,West,278,6.0,12.0,53,0.00,FEW,SCT,0.01,74.0,WeatherDisplay:10.37,2013-01-31 15:25:00,
2013-01-31 10:30:00,41.2,24.4,29.89,West,280,7.0,14.0,51,0.00,FEW,SCT,0.01,570.0,WeatherDisplay:10.37,2013-01-31 15:30:00,
2013-01-31 10:35:00,41.3,25.4,29.89,WNW,283,5.0,10.0,53,0.00,FEW,SCT,0.01,216.0,WeatherDisplay:10.37,2013-01-31 15:35:00,
2013-01-31 10:40:00,41.3,25.9,29.89,WNW,284,8.0,14.0,54,0.00,FEW,SCT,0.01,580.0,WeatherDisplay:10.37,2013-01-31 15:40:00,
2013-01-31 10:45:00,41.5,25.2,29.89,West,277,6.0,14.0,52,0.00,CLR,SCT,0.01,573.0,WeatherDisplay:10.37,2013-01-31 15:45:00,
2013-01-31 10:50:00,41.8,25.5,29.89,West,264,6.0,17.0,52,0.00,CLR,SCT,0.01,584.0,WeatherDisplay:10.37,2013-01-31 15:50:00,
2013-01-31 10:55:00,42.2,25.8,29.89,WSW,255,9.0,13.0,52,0.00,CLR,SCT,0.01,591.0,WeatherDisplay:10.37,2013-01-31 15:55:00,
2013-01-31 11:00:00,42.4,26.0,29.89,WSW,253,7.0,17.0,52,0.00,CLR,SCT,0.01,610.0,WeatherDisplay:10.37,2013-01-31 16:00:00,
2013-01-31 11:10:00,42.8,24.9,29.89,West,273,9.0,15.0,49,0.00,CLR,SCT,0.01,675.0,WeatherDisplay:10.37,2013-01-31 16:10:00,
2013-01-31 11:15:00,42.8,24.9,29.89,WNW,287,6.0,13.0,49,0.00,CLR,SCT,0.01,728.0,WeatherDisplay:10.37,2013-01-31 16:15:00,
2013-01-31 11:20:00,43.0,26.6,29.90,WNW,286,3.0,14.0,52,0.00,CLR,SCT,0.01,682.0,WeatherDisplay:10.37,2013-01-31 16:20:00,
2013-01-31 11:25:00,43.2,25.3,29.90,West,281,7.0,12.0,49,0.00,CLR,SCT,0.01,677.0,WeatherDisplay:10.37,2013-01-31 16:25:00,
2013-01-31 11:30:00,43.3,24.4,29.90,WSW,256,8.0,20.0,47,0.00,CLR,SCT,0.01,673.0,WeatherDisplay:10.37,2013-01-31 16:30:00,
2013-01-31 11:35:00,43.3,24.4,29.90,WSW,240,10.0,17.0,47,0.00,CLR,SCT,0.01,677.0,WeatherDisplay:10.37,2013-01-31 16:35:00,
2013-01-31 11:40:00,43.4,25.0,29.90,WSW,247,10.0,20.0,48,0.00,CLR,SCT,0.01,717.0,WeatherDisplay:10.37,2013-01-31 16:40:00,
2013-01-31 11:45:00,43.4,24.5,29.90,WSW,251,9.0,16.0,47,0.00,CLR,SCT,0.01,729.0,WeatherDisplay:10.37,2013-01-31 16:45:00,
2013-01-31 11:50:00,43.5,24.6,29.90,WSW,254,7.0,15.0,47,0.00,CLR,SCT,0.01,745.0,WeatherDisplay:10.37,2013-01-31 16:50:00,
2013-01-31 11:55:00,43.6,24.2,29.89,West,273,6.0,13.0,46,0.00,CLR,SCT,0.01,809.0,WeatherDisplay:10.37,2013-01-31 16:55:00,
2013-01-31 12:00:00,43.9,25.9,29.90,West,274,5.0,16.0,49,0.00,CLR,SCT,0.01,779.0,WeatherDisplay:10.37,2013-01-31 17:00:00,
2013-01-31 12:05:00,44.0,24.0,29.90,WSW,257,7.0,21.0,45,0.00,CLR,SCT,0.01,747.0,WeatherDisplay:10.37,2013-01-31 17:05:00,
2013-01-31 12:10:00,44.1,25.1,29.90,West,264,5.0,12.0,47,0.00,CLR,SCT,0.01,751.0,WeatherDisplay:10.37,2013-01-31 17:10:00,
2013-01-31 12:15:00,44.2,24.2,29.90,WSW,251,15.0,20.0,45,0.00,CLR,SCT,0.01,712.0,WeatherDisplay:10.37,2013-01-31 17:15:00,
2013-01-31 12:20:00,44.2,23.7,29.90,WSW,237,9.0,18.0,44,0.00,CLR,SCT,0.01,701.0,WeatherDisplay:10.37,2013-01-31 17:20:00,
2013-01-31 12:25:00,44.3,23.7,29.90,WSW,242,10.0,20.0,44,0.00,CLR,SCT,0.01,754.0,WeatherDisplay:10.37,2013-01-31 17:25:00,
2013-01-31 12:30:00,44.3,24.3,29.90,WSW,245,9.0,20.0,45,0.00,CLR,SCT,0.01,715.0,WeatherDisplay:10.37,2013-01-31 17:30:00,
2013-01-31 12:35:00,44.5,24.4,29.90,WSW,239,7.0,17.0,45,0.00,CLR,SCT,0.01,715.0,WeatherDisplay:10.37,2013-01-31 17:35:00,
2013-01-31 12:40:00,44.6,23.5,29.89,WSW,255,7.0,20.0,43,0.00,CLR,SCT,0.01,705.0,WeatherDisplay:10.37,2013-01-31 17:40:00,
2013-01-31 12:45:00,44.7,23.5,29.89,West,272,9.0,16.0,43,0.00,CLR,SCT,0.01,701.0,WeatherDisplay:10.37,2013-01-31 17:45:00,
2013-01-31 12:50:00,44.8,25.3,29.89,West,270,6.0,14.0,46,0.00,CLR,SCT,0.01,701.0,WeatherDisplay:10.37,2013-01-31 17:50:00,
2013-01-31 12:55:00,45.0,23.8,29.88,WSW,257,12.0,21.0,43,0.00,CLR,SCT,0.01,701.0,WeatherDisplay:10.37,2013-01-31 17:55:00,
2013-01-31 13:00:00,45.0,23.8,29.88,WSW,256,9.0,14.0,43,0.00,CLR,SCT,0.01,698.0,WeatherDisplay:10.37,2013-01-31 18:00:00,
2013-01-31 13:05:00,45.0,24.4,29.88,West,261,7.0,22.0,44,0.00,CLR,SCT,0.01,701.0,WeatherDisplay:10.37,2013-01-31 18:05:00,
2013-01-31 13:10:00,45.0,23.8,29.88,West,262,12.0,16.0,43,0.00,CLR,SCT,0.01,694.0,WeatherDisplay:10.37,2013-01-31 18:10:00,
2013-01-31 13:15:00,45.0,22.7,29.89,West,261,8.0,16.0,41,0.00,CLR,SCT,0.01,691.0,WeatherDisplay:10.37,2013-01-31 18:15:00,
2013-01-31 13:20:00,45.1,22.8,29.89,WSW,251,16.0,24.0,41,0.00,CLR,SCT,0.01,712.0,WeatherDisplay:10.37,2013-01-31 18:20:00,
2013-01-31 13:30:00,45.2,22.3,29.89,WSW,251,15.0,22.0,40,0.00,CLR,SCT,0.01,728.0,WeatherDisplay:10.37,2013-01-31 18:30:00,
2013-01-31 13:35:00,45.4,23.0,29.89,West,262,10.0,16.0,41,0.00,CLR,SCT,0.01,680.0,WeatherDisplay:10.37,2013-01-31 18:35:00,
2013-01-31 13:40:00,45.6,23.2,29.89,West,277,12.0,22.0,41,0.00,CLR,SCT,0.01,679.0,WeatherDisplay:10.37,2013-01-31 18:40:00,
2013-01-31 13:50:00,45.6,22.6,29.90,West,267,12.0,23.0,40,0.00,CLR,SCT,0.01,670.0,WeatherDisplay:10.37,2013-01-31 18:50:00,
2013-01-31 13:55:00,45.6,24.4,29.89,West,261,7.0,22.0,43,0.00,CLR,SCT,0.01,673.0,WeatherDisplay:10.37,2013-01-31 18:55:00,
2013-01-31 14:00:00,45.8,23.4,29.89,West,279,8.0,18.0,41,0.00,CLR,SCT,0.01,663.0,WeatherDisplay:10.37,2013-01-31 19:00:00,
2013-01-31 14:05:00,45.9,23.5,29.89,West,279,12.0,20.0,41,0.00,CLR,SCT,0.01,643.0,WeatherDisplay:10.37,2013-01-31 19:05:00,
2013-01-31 14:10:00,45.8,24.5,29.89,West,271,7.0,26.0,43,0.00,CLR,SCT,0.01,636.0,WeatherDisplay:10.37,2013-01-31 19:10:00,
2013-01-31 14:15:00,45.9,23.5,29.89,West,272,14.0,22.0,41,0.00,CLR,SCT,0.01,626.0,WeatherDisplay:10.37,2013-01-31 19:15:00,
2013-01-31 14:20:00,45.8,23.4,29.90,West,274,8.0,17.0,41,0.00,CLR,SCT,0.01,626.0,WeatherDisplay:10.37,2013-01-31 19:20:00,
2013-01-31 14:25:00,45.8,23.4,29.90,West,272,9.0,16.0,41,0.00,CLR,SCT,0.01,619.0,WeatherDisplay:10.37,2013-01-31 19:25:00,
2013-01-31 14:30:00,45.9,24.6,29.91,West,275,9.0,18.0,43,0.00,CLR,SCT,0.01,603.0,WeatherDisplay:10.37,2013-01-31 19:30:00,
2013-01-31 14:35:00,45.8,22.2,29.91,West,266,14.0,27.0,39,0.00,CLR,SCT,0.01,589.0,WeatherDisplay:10.37,2013-01-31 19:35:00,
2013-01-31 14:40:00,45.8,22.2,29.91,West,264,16.0,22.0,39,0.00,CLR,SCT,0.01,575.0,WeatherDisplay:10.37,2013-01-31 19:40:00,
2013-01-31 14:45:00,45.6,23.2,29.92,West,273,9.0,26.0,41,0.00,CLR,SCT,0.01,564.0,WeatherDisplay:10.37,2013-01-31 19:45:00,
2013-01-31 14:50:00,45.5,22.5,29.92,West,273,12.0,21.0,40,0.00,CLR,SCT,0.01,550.0,WeatherDisplay:10.37,2013-01-31 19:50:00,
2013-01-31 14:55:00,45.4,22.5,29.92,West,266,10.0,22.0,40,0.00,CLR,SCT,0.01,538.0,WeatherDisplay:10.37,2013-01-31 19:55:00,
2013-01-31 15:00:00,45.4,24.2,29.92,West,267,8.0,18.0,43,0.00,CLR,SCT,0.01,527.0,WeatherDisplay:10.37,2013-01-31 20:00:00,
2013-01-31 15:05:00,45.6,23.8,29.93,West,264,12.0,21.0,42,0.00,CLR,SCT,0.01,515.0,WeatherDisplay:10.37,2013-01-31 20:05:00,
2013-01-31 15:10:00,45.6,23.3,29.93,West,269,9.0,17.0,41,0.00,CLR,SCT,0.01,506.0,WeatherDisplay:10.37,2013-01-31 20:10:00,
2013-01-31 15:15:00,45.7,22.7,29.93,West,259,15.0,20.0,40,0.00,CLR,SCT,0.01,494.0,WeatherDisplay:10.37,2013-01-31 20:15:00,
2013-01-31 15:20:00,45.6,22.6,29.93,West,262,9.0,20.0,40,0.00,CLR,SCT,0.01,482.0,WeatherDisplay:10.37,2013-01-31 20:20:00,
2013-01-31 15:25:00,45.6,23.2,29.94,West,269,13.0,20.0,41,0.00,CLR,SCT,0.01,468.0,WeatherDisplay:10.37,2013-01-31 20:25:00,
2013-01-31 15:30:00,45.5,23.1,29.94,West,267,15.0,24.0,41,0.00,CLR,SCT,0.01,455.0,WeatherDisplay:10.37,2013-01-31 20:30:00,
2013-01-31 15:35:00,45.3,22.9,29.94,West,271,13.0,24.0,41,0.00,CLR,SCT,0.01,439.0,WeatherDisplay:10.37,2013-01-31 20:35:00,
2013-01-31 15:40:00,45.0,22.1,29.94,West,269,14.0,30.0,40,0.00,CLR,SCT,0.01,424.0,WeatherDisplay:10.37,2013-01-31 20:40:00,
2013-01-31 15:45:00,45.0,22.7,29.94,West,269,10.0,22.0,41,0.00,CLR,SCT,0.01,413.0,WeatherDisplay:10.37,2013-01-31 20:45:00,
2013-01-31 15:50:00,44.9,22.6,29.94,West,271,12.0,23.0,41,0.00,CLR,SCT,0.01,397.0,WeatherDisplay:10.37,2013-01-31 20:50:00,
2013-01-31 15:55:00,45.0,23.3,29.94,West,266,13.0,26.0,42,0.00,CLR,SCT,0.01,387.0,WeatherDisplay:10.37,2013-01-31 20:55:00,
2013-01-31 16:00:00,45.0,22.7,29.94,West,259,8.0,21.0,41,0.00,CLR,SCT,0.01,371.0,WeatherDisplay:10.37,2013-01-31 21:00:00,
2013-01-31 16:05:00,45.0,22.1,29.95,West,267,15.0,25.0,40,0.00,CLR,SCT,0.01,355.0,WeatherDisplay:10.37,2013-01-31 21:05:00,
2013-01-31 16:10:00,44.8,20.7,29.95,West,264,16.0,26.0,38,0.00,FEW,SCT,0.01,339.0,WeatherDisplay:10.37,2013-01-31 21:10:00,
2013-01-31 16:15:00,44.6,21.1,29.95,West,260,10.0,26.0,39,0.00,FEW,SCT,0.01,323.0,WeatherDisplay:10.37,2013-01-31 21:15:00,
2013-01-31 16:20:00,44.5,21.0,29.96,West,260,12.0,26.0,39,0.00,FEW,SCT,0.01,309.0,WeatherDisplay:10.37,2013-01-31 21:20:00,
2013-01-31 16:25:00,44.3,20.9,29.96,West,261,15.0,25.0,39,0.00,FEW,SCT,0.01,294.0,WeatherDisplay:10.37,2013-01-31 21:25:00,
2013-01-31 16:30:00,44.2,20.8,29.97,WSW,256,10.0,21.0,39,0.00,FEW,SCT,0.01,278.0,WeatherDisplay:10.37,2013-01-31 21:30:00,
2013-01-31 16:35:00,44.1,21.9,29.97,West,259,8.0,21.0,41,0.00,FEW,SCT,0.01,262.0,WeatherDisplay:10.37,2013-01-31 21:35:00,
2013-01-31 16:40:00,44.1,21.3,29.97,West,259,7.0,21.0,40,0.00,FEW,SCT,0.01,246.0,WeatherDisplay:10.37,2013-01-31 21:40:00,
2013-01-31 16:45:00,44.0,20.6,29.96,West,265,12.0,22.0,39,0.00,FEW,SCT,0.01,229.0,WeatherDisplay:10.37,2013-01-31 21:45:00,
2013-01-31 16:50:00,43.7,21.0,29.96,West,264,8.0,21.0,40,0.00,FEW,SCT,0.01,211.0,WeatherDisplay:10.37,2013-01-31 21:50:00,
2013-01-31 16:55:00,43.6,20.8,29.96,WSW,254,13.0,18.0,40,0.00,SCT,SCT,0.01,193.0,WeatherDisplay:10.37,2013-01-31 21:55:00,
2013-01-31 17:00:00,43.5,20.7,29.96,WSW,258,8.0,14.0,40,0.00,SCT,SCT,0.01,179.0,WeatherDisplay:10.37,2013-01-31 22:00:00,
2013-01-31 17:05:00,43.4,20.7,29.96,WSW,253,13.0,20.0,40,0.00,SCT,SCT,0.01,162.0,WeatherDisplay:10.37,2013-01-31 22:05:00,
2013-01-31 17:10:00,43.3,21.1,29.96,WSW,258,6.0,13.0,41,0.00,SCT,SCT,0.01,144.0,WeatherDisplay:10.37,2013-01-31 22:10:00,
2013-01-31 17:15:00,43.3,21.1,29.96,West,274,5.0,13.0,41,0.00,SCT,SCT,0.01,127.0,WeatherDisplay:10.37,2013-01-31 22:15:00,
2013-01-31 17:20:00,43.2,21.1,29.96,West,273,6.0,14.0,41,0.00,SCT,SCT,0.01,102.0,WeatherDisplay:10.37,2013-01-31 22:20:00,
2013-01-31 17:25:00,43.1,21.0,29.97,West,272,6.0,13.0,41,0.00,BKN,SCT,0.01,83.0,WeatherDisplay:10.37,2013-01-31 22:25:00,
2013-01-31 17:30:00,42.9,20.8,29.97,West,269,5.0,14.0,41,0.00,BKN,SCT,0.01,63.0,WeatherDisplay:10.37,2013-01-31 22:30:00,
2013-01-31 17:35:00,42.7,20.6,29.97,West,264,6.0,9.0,41,0.00,BKN,SCT,0.01,12.0,WeatherDisplay:10.37,2013-01-31 22:35:00,
2013-01-31 17:40:00,42.5,21.0,29.96,West,266,1.0,7.0,42,0.00,BKN,SCT,0.01,11.0,WeatherDisplay:10.37,2013-01-31 22:40:00,
2013-01-31 17:45:00,42.3,21.4,29.97,West,268,0.0,4.0,43,0.00,BKN,SCT,0.01,9.0,WeatherDisplay:10.37,2013-01-31 22:45:00,
2013-01-31 17:50:00,42.1,21.2,29.97,West,265,1.0,5.0,43,0.00,BKN,SCT,0.01,5.0,WeatherDisplay:10.37,2013-01-31 22:50:00,
2013-01-31 17:55:00,41.8,20.9,29.97,West,265,2.0,5.0,43,0.00,BKN,SCT,0.01,0.0,WeatherDisplay:10.37,2013-01-31 22:55:00,
2013-01-31 18:00:00,41.6,21.3,29.97,West,265,0.0,3.0,44,0.00,BKN,SCT,0.01,0.0,WeatherDisplay:10.37,2013-01-31 23:00:00,
2013-01-31 18:05:00,41.4,21.1,29.97,West,264,1.0,3.0,44,0.00,BKN,SCT,0.01,0.0,WeatherDisplay:10.37,2013-01-31 23:05:00,
2013-01-31 18:10:00,41.2,20.9,29.98,West,265,0.0,2.0,44,0.00,BKN,SCT,0.01,0.0,WeatherDisplay:10.37,2013-01-31 23:10:00,
2013-01-31 18:15:00,41.0,21.3,29.97,West,265,0.0,3.0,45,0.00,BKN,SCT,0.01,0.0,WeatherDisplay:10.37,2013-01-31 23:15:00,
2013-01-31 18:20:00,40.7,21.5,29.97,West,264,0.0,1.0,46,0.00,BKN,SCT,0.01,0.0,WeatherDisplay:10.37,2013-01-31 23:20:00,
2013-01-31 18:25:00,40.5,21.3,29.97,West,264,0.0,1.0,46,0.00,BKN,SCT,0.01,0.0,WeatherDisplay:10.37,2013-01-31 23:25:00,
2013-01-31 18:30:00,40.3,21.6,29.97,West,264,0.0,1.0,47,0.00,BKN,SCT,0.01,0.0,WeatherDisplay:10.37,2013-01-31 23:30:00,
2013-01-31 18:40:00,39.8,21.2,29.98,West,265,0.0,2.0,47,0.00,BKN,SCT,0.01,0.0,WeatherDisplay:10.37,2013-01-31 23:40:00,
2013-01-31 18:45:00,39.5,21.4,29.98,West,265,0.0,3.0,48,0.00,BKN,SCT,0.01,0.0,WeatherDisplay:10.37,2013-01-31 23:45:00,
2013-01-31 18:50:00,39.4,21.8,29.98,West,265,0.0,1.0,49,0.00,BKN,SCT,0.01,0.0,WeatherDisplay:10.37,2013-01-31 23:50:00,
2013-01-31 18:55:00,39.2,21.6,29.98,West,265,0.0,1.0,49,0.00,BKN,SCT,0.01,0.0,WeatherDisplay:10.37,2013-01-31 23:55:00,
2013-01-31 19:00:00,39.0,21.9,29.98,West,265,0.0,2.0,50,0.00,BKN,SCT,0.01,0.0,WeatherDisplay:10.37,2013-02-01 00:00:00,
2013-01-31 19:05:00,38.9,21.8,29.98,West,265,0.0,2.0,50,0.00,BKN,SCT,0.01,0.0,WeatherDisplay:10.37,2013-02-01 00:05:00,
2013-01-31 19:10:00,38.7,21.6,29.98,West,265,0.0,2.0,50,0.00,BKN,SCT,0.01,0.0,WeatherDisplay:10.37,2013-02-01 00:10:00,
2013-01-31 19:15:00,38.5,21.9,29.99,West,265,0.0,4.0,51,0.00,BKN,SCT,0.01,0.0,WeatherDisplay:10.37,2013-02-01 00:15:00,
2013-01-31 19:20:00,38.4,21.8,29.99,West,265,1.0,3.0,51,0.00,BKN,SCT,0.01,0.0,WeatherDisplay:10.37,2013-02-01 00:20:00,
2013-01-31 19:25:00,38.2,21.6,29.99,West,265,1.0,3.0,51,0.00,BKN,SCT,0.01,0.0,WeatherDisplay:10.37,2013-02-01 00:25:00,
2013-01-31 19:30:00,38.1,21.5,29.99,West,265,0.0,4.0,51,0.00,BKN,SCT,0.01,0.0,WeatherDisplay:10.37,2013-02-01 00:30:00,
2013-01-31 19:35:00,38.0,21.9,29.99,West,265,0.0,3.0,52,0.00,BKN,SCT,0.01,0.0,WeatherDisplay:10.37,2013-02-01 00:35:00,
2013-01-31 19:40:00,37.9,21.8,30.00,West,265,0.0,1.0,52,0.00,BKN,SCT,0.01,0.0,WeatherDisplay:10.37,2013-02-01 00:40:00,
2013-01-31 19:45:00,37.8,21.7,30.00,West,265,0.0,4.0,52,0.00,BKN,SCT,0.01,0.0,WeatherDisplay:10.37,2013-02-01 00:45:00,
2013-01-31 19:50:00,37.7,22.1,30.00,West,265,0.0,0.0,53,0.00,BKN,SCT,0.01,0.0,WeatherDisplay:10.37,2013-02-01 00:50:00,
2013-01-31 19:55:00,37.6,22.0,30.00,West,265,0.0,1.0,53,0.00,BKN,SCT,0.01,0.0,WeatherDisplay:10.37,2013-02-01 00:55:00,
2013-01-31 20:00:00,37.5,21.9,30.00,West,264,0.0,1.0,53,0.00,BKN,SCT,0.01,0.0,WeatherDisplay:10.37,2013-02-01 01:00:00,
2013-01-31 20:05:00,37.3,22.2,30.00,West,265,0.0,1.0,54,0.00,BKN,SCT,0.01,0.0,WeatherDisplay:10.37,2013-02-01 01:05:00,
2013-01-31 20:10:00,37.0,21.4,30.00,West,265,0.0,3.0,53,0.00,BKN,SCT,0.01,0.0,WeatherDisplay:10.37,2013-02-01 01:10:00,
2013-01-31 20:15:00,36.8,22.1,29.99,West,265,1.0,3.0,55,0.00,BKN,SCT,0.01,0.0,WeatherDisplay:10.37,2013-02-01 01:15:00,
2013-01-31 20:20:00,36.6,21.9,29.99,West,265,0.0,2.0,55,0.00,BKN,SCT,0.01,0.0,WeatherDisplay:10.37,2013-02-01 01:20:00,
2013-01-31 20:25:00,36.5,21.4,29.99,West,265,0.0,1.0,54,0.00,BKN,SCT,0.01,0.0,WeatherDisplay:10.37,2013-02-01 01:25:00,
2013-01-31 20:30:00,36.4,21.3,29.98,West,265,0.0,1.0,54,0.00,BKN,SCT,0.01,0.0,WeatherDisplay:10.37,2013-02-01 01:30:00,
2013-01-31 20:35:00,36.4,21.8,29.98,West,265,1.0,4.0,55,0.00,BKN,SCT,0.01,0.0,WeatherDisplay:10.37,2013-02-01 01:35:00,
2013-01-31 20:40:00,36.4,21.8,29.98,West,265,1.0,4.0,55,0.00,BKN,SCT,0.01,0.0,WeatherDisplay:10.37,2013-02-01 01:40:00,
2013-01-31 20:45:00,36.4,21.8,29.99,West,265,1.0,3.0,55,0.00,BKN,SCT,0.01,0.0,WeatherDisplay:10.37,2013-02-01 01:45:00,
2013-01-31 20:50:00,36.5,22.3,29.99,West,264,1.0,2.0,56,0.00,BKN,SCT,0.01,0.0,WeatherDisplay:10.37,2013-02-01 01:50:00,
2013-01-31 20:55:00,36.5,22.3,29.99,West,264,2.0,5.0,56,0.00,BKN,SCT,0.01,0.0,WeatherDisplay:10.37,2013-02-01 01:55:00,
2013-01-31 21:00:00,36.5,22.3,29.98,West,265,1.0,4.0,56,0.00,BKN,SCT,0.01,0.0,WeatherDisplay:10.37,2013-02-01 02:00:00,
2013-01-31 21:05:00,36.6,22.3,29.99,West,265,0.0,1.0,56,0.00,BKN,SCT,0.01,0.0,WeatherDisplay:10.37,2013-02-01 02:05:00,
2013-01-31 21:10:00,36.6,22.4,29.99,WSW,258,2.0,9.0,56,0.00,BKN,SCT,0.01,0.0,WeatherDisplay:10.37,2013-02-01 02:10:00,
2013-01-31 21:15:00,36.7,22.4,30.00,WSW,251,3.0,7.0,56,0.00,BKN,SCT,0.01,0.0,WeatherDisplay:10.37,2013-02-01 02:15:00,
2013-01-31 21:20:00,36.8,22.6,30.00,WSW,253,3.0,6.0,56,0.00,BKN,SCT,0.01,0.0,WeatherDisplay:10.37,2013-02-01 02:20:00,
2013-01-31 21:25:00,37.0,22.3,30.00,WSW,254,2.0,8.0,55,0.00,BKN,SCT,0.01,0.0,WeatherDisplay:10.37,2013-02-01 02:25:00,
2013-01-31 21:30:00,37.2,22.5,30.00,WSW,253,2.0,4.0,55,0.00,BKN,SCT,0.01,0.0,WeatherDisplay:10.37,2013-02-01 02:30:00,
2013-01-31 21:35:00,37.3,22.2,30.00,WSW,253,1.0,4.0,54,0.00,BKN,SCT,0.01,0.0,WeatherDisplay:10.37,2013-02-01 02:35:00,
2013-01-31 21:40:00,37.4,22.7,30.00,WSW,253,0.0,1.0,55,0.00,BKN,SCT,0.01,0.0,WeatherDisplay:10.37,2013-02-01 02:40:00,
2013-01-31 21:45:00,37.5,22.3,30.00,WSW,253,0.0,5.0,54,0.00,BKN,SCT,0.01,0.0,WeatherDisplay:10.37,2013-02-01 02:45:00,
2013-01-31 21:50:00,37.5,22.3,30.00,WSW,253,0.0,2.0,54,0.00,BKN,SCT,0.01,0.0,WeatherDisplay:10.37,2013-02-01 02:50:00,
2013-01-31 21:55:00,37.5,22.3,30.00,WSW,253,0.0,2.0,54,0.00,BKN,SCT,0.01,0.0,WeatherDisplay:10.37,2013-02-01 02:55:00,
2013-01-31 22:00:00,37.4,22.3,30.00,WSW,253,0.0,1.0,54,0.00,BKN,SCT,0.01,0.0,WeatherDisplay:10.37,2013-02-01 03:00:00,
2013-01-31 22:05:00,37.4,22.7,30.00,WSW,253,0.0,0.0,55,0.00,BKN,SCT,0.01,0.0,WeatherDisplay:10.37,2013-02-01 03:05:00,
2013-01-31 22:10:00,37.3,22.6,30.00,WSW,253,0.0,1.0,55,0.00,BKN,SCT,0.01,0.0,WeatherDisplay:10.37,2013-02-01 03:10:00,
2013-01-31 22:15:00,37.1,22.4,30.00,WSW,253,0.0,2.0,55,0.00,BKN,SCT,0.01,0.0,WeatherDisplay:10.37,2013-02-01 03:15:00,
2013-01-31 22:20:00,36.9,22.2,30.00,WSW,253,1.0,3.0,55,0.00,BKN,SCT,0.01,0.0,WeatherDisplay:10.37,2013-02-01 03:20:00,
2013-01-31 22:25:00,36.8,22.1,30.00,WSW,253,1.0,3.0,55,0.00,BKN,SCT,0.01,0.0,WeatherDisplay:10.37,2013-02-01 03:25:00,
2013-01-31 22:30:00,36.6,21.9,30.00,WSW,253,0.0,3.0,55,0.00,BKN,SCT,0.01,0.0,WeatherDisplay:10.37,2013-02-01 03:30:00,
2013-01-31 22:35:00,36.5,21.8,30.00,WSW,253,0.0,3.0,55,0.00,BKN,SCT,0.01,0.0,WeatherDisplay:10.37,2013-02-01 03:35:00,
2013-01-31 22:40:00,36.5,21.8,30.00,WSW,253,0.0,4.0,55,0.00,BKN,SCT,0.01,0.0,WeatherDisplay:10.37,2013-02-01 03:40:00,
2013-01-31 22:45:00,36.4,21.8,30.00,WSW,253,0.0,3.0,55,0.00,BKN,SCT,0.01,0.0,WeatherDisplay:10.37,2013-02-01 03:45:00,
2013-01-31 22:50:00,36.4,21.8,30.00,WSW,253,2.0,4.0,55,0.00,BKN,SCT,0.01,0.0,WeatherDisplay:10.37,2013-02-01 03:50:00,
2013-01-31 22:55:00,36.4,21.7,30.00,WSW,253,0.0,2.0,55,0.00,BKN,SCT,0.01,0.0,WeatherDisplay:10.37,2013-02-01 03:55:00,
2013-01-31 23:00:00,36.3,22.1,30.00,WSW,253,1.0,4.0,56,0.00,BKN,SCT,0.01,0.0,WeatherDisplay:10.37,2013-02-01 04:00:00,
2013-01-31 23:10:00,36.2,22.0,29.99,WSW,253,1.0,5.0,56,0.00,BKN,SCT,0.01,0.0,WeatherDisplay:10.37,2013-02-01 04:10:00,
2013-01-31 23:15:00,36.2,22.0,29.99,WSW,253,0.0,5.0,56,0.00,BKN,SCT,0.01,0.0,WeatherDisplay:10.37,2013-02-01 04:15:00,
2013-01-31 23:20:00,36.2,22.4,29.99,WSW,253,1.0,5.0,57,0.00,BKN,SCT,0.01,0.0,WeatherDisplay:10.37,2013-02-01 04:20:00,
2013-01-31 23:25:00,36.2,22.4,29.99,WSW,253,1.0,5.0,57,0.00,BKN,SCT,0.01,0.0,WeatherDisplay:10.37,2013-02-01 04:25:00,
2013-01-31 23:30:00,36.1,22.4,29.98,WSW,253,1.0,3.0,57,0.00,BKN,SCT,0.01,0.0,WeatherDisplay:10.37,2013-02-01 04:30:00,
2013-01-31 23:35:00,36.1,22.3,29.99,WSW,248,2.0,6.0,57,0.00,BKN,SCT,0.01,0.0,WeatherDisplay:10.37,2013-02-01 04:35:00,
2013-01-31 23:45:00,36.3,22.5,29.98,SW,229,0.0,9.0,57,0.00,BKN,SCT,0.01,0.0,WeatherDisplay:10.37,2013-02-01 04:45:00,
2013-01-31 23:50:00,36.4,22.2,29.98,SW,227,0.0,6.0,56,0.00,BKN,SCT,0.01,0.0,WeatherDisplay:10.37,2013-02-01 04:50:00,
2013-01-31 23:55:00,36.5,22.3,29.99,SW,232,3.0,6.0,56,0.00,BKN,SCT,0.01,0.0,WeatherDisplay:10.37,2013-02-01 04:55:00,